sensor_id;sensor_type;location;lat;lon;timestamp;temperature;humidity
14277;DHT22;7222;57.346;12.150;2022-12-07T00:01:49;-2.10;99.90
14277;DHT22;7222;57.346;12.150;2022-12-07T00:04:17;-2.10;99.90
14277;DHT22;7222;57.346;12.150;2022-12-07T00:06:46;-2.10;99.90
14277;DHT22;7222;57.346;12.150;2022-12-07T00:09:16;-2.00;99.90
14277;DHT22;7222;57.346;12.150;2022-12-07T00:11:43;-2.00;99.90
14277;DHT22;7222;57.346;12.150;2022-12-07T00:14:13;-2.00;99.90
14277;DHT22;7222;57.346;12.150;2022-12-07T00:16:41;-2.20;99.90
14277;DHT22;7222;57.346;12.150;2022-12-07T00:19:10;-2.20;99.90
14277;DHT22;7222;57.346;12.150;2022-12-07T00:21:38;-2.20;99.90
14277;DHT22;7222;57.346;12.150;2022-12-07T00:24:06;-2.20;99.90
14277;DHT22;7222;57.346;12.150;2022-12-07T00:26:36;-2.10;99.90
14277;DHT22;7222;57.346;12.150;2022-12-07T00:29:05;-2.10;99.90
14277;DHT22;7222;57.346;12.150;2022-12-07T00:31:34;-2.20;99.90
14277;DHT22;7222;57.346;12.150;2022-12-07T00:34:04;-2.10;99.90
14277;DHT22;7222;57.346;12.150;2022-12-07T00:36:32;-2.20;99.90
14277;DHT22;7222;57.346;12.150;2022-12-07T00:39:00;-2.20;99.90
14277;DHT22;7222;57.346;12.150;2022-12-07T00:41:28;-2.10;99.90
14277;DHT22;7222;57.346;12.150;2022-12-07T00:43:57;-2.20;99.90
14277;DHT22;7222;57.346;12.150;2022-12-07T00:46:24;-2.10;99.90
14277;DHT22;7222;57.346;12.150;2022-12-07T00:48:52;-2.10;99.90
14277;DHT22;7222;57.346;12.150;2022-12-07T00:51:22;-2.10;99.90
14277;DHT22;7222;57.346;12.150;2022-12-07T00:53:49;-2.10;99.90
14277;DHT22;7222;57.346;12.150;2022-12-07T00:56:18;-2.10;99.90
14277;DHT22;7222;57.346;12.150;2022-12-07T00:58:50;-2.10;99.90
14277;DHT22;7222;57.346;12.150;2022-12-07T01:01:18;-2.10;99.90
14277;DHT22;7222;57.346;12.150;2022-12-07T01:03:45;-2.10;99.90
14277;DHT22;7222;57.346;12.150;2022-12-07T01:06:14;-2.20;99.90
14277;DHT22;7222;57.346;12.150;2022-12-07T01:08:42;-2.10;99.90
14277;DHT22;7222;57.346;12.150;2022-12-07T01:11:11;-2.10;99.90
14277;DHT22;7222;57.346;12.150;2022-12-07T01:13:39;-2.10;99.90
14277;DHT22;7222;57.346;12.150;2022-12-07T01:16:07;-2.10;99.90
14277;DHT22;7222;57.346;12.150;2022-12-07T01:18:36;-2.00;99.90
14277;DHT22;7222;57.346;12.150;2022-12-07T01:21:05;-2.10;99.90
14277;DHT22;7222;57.346;12.150;2022-12-07T01:23:34;-2.00;99.90
14277;DHT22;7222;57.346;12.150;2022-12-07T01:26:03;-2.00;99.90
14277;DHT22;7222;57.346;12.150;2022-12-07T01:28:31;-2.00;99.90
14277;DHT22;7222;57.346;12.150;2022-12-07T01:30:59;-2.00;99.90
14277;DHT22;7222;57.346;12.150;2022-12-07T01:33:28;-2.00;99.90
14277;DHT22;7222;57.346;12.150;2022-12-07T01:36:00;-2.10;99.90
14277;DHT22;7222;57.346;12.150;2022-12-07T01:38:28;-2.00;99.90
14277;DHT22;7222;57.346;12.150;2022-12-07T01:40:56;-2.00;99.90
14277;DHT22;7222;57.346;12.150;2022-12-07T01:43:26;-2.00;99.90
14277;DHT22;7222;57.346;12.150;2022-12-07T01:45:53;-2.00;99.90
14277;DHT22;7222;57.346;12.150;2022-12-07T01:48:24;-2.00;99.90
14277;DHT22;7222;57.346;12.150;2022-12-07T01:50:53;-2.00;99.90
14277;DHT22;7222;57.346;12.150;2022-12-07T01:53:25;-2.10;99.90
14277;DHT22;7222;57.346;12.150;2022-12-07T01:55:53;-2.10;99.90
14277;DHT22;7222;57.346;12.150;2022-12-07T01:58:21;-2.00;99.90
14277;DHT22;7222;57.346;12.150;2022-12-07T02:00:49;-2.10;99.90
14277;DHT22;7222;57.346;12.150;2022-12-07T02:03:19;-2.10;99.90
14277;DHT22;7222;57.346;12.150;2022-12-07T02:05:48;-2.00;99.90
14277;DHT22;7222;57.346;12.150;2022-12-07T02:08:16;-2.00;99.90
14277;DHT22;7222;57.346;12.150;2022-12-07T02:10:45;-2.00;99.90
14277;DHT22;7222;57.346;12.150;2022-12-07T02:13:15;-2.10;99.90
14277;DHT22;7222;57.346;12.150;2022-12-07T02:16:05;-2.10;99.90
14277;DHT22;7222;57.346;12.150;2022-12-07T02:18:48;-2.00;99.90
14277;DHT22;7222;57.346;12.150;2022-12-07T02:21:22;-2.00;99.90
14277;DHT22;7222;57.346;12.150;2022-12-07T02:24:14;-2.00;99.90
14277;DHT22;7222;57.346;12.150;2022-12-07T02:27:07;-2.00;99.90
14277;DHT22;7222;57.346;12.150;2022-12-07T02:29:41;-2.00;99.90
14277;DHT22;7222;57.346;12.150;2022-12-07T02:32:15;-2.00;99.90
14277;DHT22;7222;57.346;12.150;2022-12-07T02:34:48;-2.00;99.90
14277;DHT22;7222;57.346;12.150;2022-12-07T02:37:25;-1.90;99.90
14277;DHT22;7222;57.346;12.150;2022-12-07T02:39:58;-2.00;99.90
14277;DHT22;7222;57.346;12.150;2022-12-07T02:42:32;-2.00;99.90
14277;DHT22;7222;57.346;12.150;2022-12-07T02:45:05;-1.90;99.90
14277;DHT22;7222;57.346;12.150;2022-12-07T02:47:34;-1.90;99.90
14277;DHT22;7222;57.346;12.150;2022-12-07T02:50:03;-1.90;99.90
14277;DHT22;7222;57.346;12.150;2022-12-07T02:52:30;-1.90;99.90
14277;DHT22;7222;57.346;12.150;2022-12-07T02:54:58;-1.90;99.90
14277;DHT22;7222;57.346;12.150;2022-12-07T02:57:41;-1.90;99.90
14277;DHT22;7222;57.346;12.150;2022-12-07T03:00:14;-1.90;99.90
14277;DHT22;7222;57.346;12.150;2022-12-07T03:02:53;-1.90;99.90
14277;DHT22;7222;57.346;12.150;2022-12-07T03:05:39;-1.80;99.90
14277;DHT22;7222;57.346;12.150;2022-12-07T03:08:15;-1.80;99.90
14277;DHT22;7222;57.346;12.150;2022-12-07T03:10:54;-1.70;99.90
14277;DHT22;7222;57.346;12.150;2022-12-07T03:13:26;-1.70;99.90
14277;DHT22;7222;57.346;12.150;2022-12-07T03:16:00;-1.70;99.90
14277;DHT22;7222;57.346;12.150;2022-12-07T03:18:32;-1.80;99.90
14277;DHT22;7222;57.346;12.150;2022-12-07T03:21:04;-1.70;99.90
14277;DHT22;7222;57.346;12.150;2022-12-07T03:23:34;-1.70;99.90
14277;DHT22;7222;57.346;12.150;2022-12-07T03:26:03;-1.70;99.90
14277;DHT22;7222;57.346;12.150;2022-12-07T03:28:34;-1.70;99.90
14277;DHT22;7222;57.346;12.150;2022-12-07T03:31:10;-1.70;99.90
14277;DHT22;7222;57.346;12.150;2022-12-07T03:33:43;-1.70;99.90
14277;DHT22;7222;57.346;12.150;2022-12-07T03:36:18;-1.60;99.90
14277;DHT22;7222;57.346;12.150;2022-12-07T03:38:49;-1.60;99.90
14277;DHT22;7222;57.346;12.150;2022-12-07T03:41:20;-1.60;99.90
14277;DHT22;7222;57.346;12.150;2022-12-07T03:43:49;-1.50;99.90
14277;DHT22;7222;57.346;12.150;2022-12-07T03:46:24;-1.50;99.90
14277;DHT22;7222;57.346;12.150;2022-12-07T03:48:58;-1.60;99.90
14277;DHT22;7222;57.346;12.150;2022-12-07T03:51:33;-1.50;99.90
14277;DHT22;7222;57.346;12.150;2022-12-07T03:54:09;-1.50;99.90
14277;DHT22;7222;57.346;12.150;2022-12-07T03:56:38;-1.40;99.90
14277;DHT22;7222;57.346;12.150;2022-12-07T03:59:07;-1.40;99.90
14277;DHT22;7222;57.346;12.150;2022-12-07T04:01:35;-1.40;99.90
14277;DHT22;7222;57.346;12.150;2022-12-07T04:04:03;-1.50;99.90
14277;DHT22;7222;57.346;12.150;2022-12-07T04:06:30;-1.40;99.90
14277;DHT22;7222;57.346;12.150;2022-12-07T04:08:57;-1.50;99.90
14277;DHT22;7222;57.346;12.150;2022-12-07T04:11:24;-1.40;99.90
14277;DHT22;7222;57.346;12.150;2022-12-07T04:13:51;-1.40;99.90
14277;DHT22;7222;57.346;12.150;2022-12-07T04:16:32;-1.40;99.90
14277;DHT22;7222;57.346;12.150;2022-12-07T04:19:00;-1.40;99.90
14277;DHT22;7222;57.346;12.150;2022-12-07T04:21:27;-1.30;99.90
14277;DHT22;7222;57.346;12.150;2022-12-07T04:23:54;-1.30;99.90
14277;DHT22;7222;57.346;12.150;2022-12-07T04:26:21;-1.30;99.90
14277;DHT22;7222;57.346;12.150;2022-12-07T04:28:48;-1.30;99.90
14277;DHT22;7222;57.346;12.150;2022-12-07T04:31:15;-1.30;99.90
14277;DHT22;7222;57.346;12.150;2022-12-07T04:33:42;-1.20;99.90
14277;DHT22;7222;57.346;12.150;2022-12-07T04:36:11;-1.20;99.90
14277;DHT22;7222;57.346;12.150;2022-12-07T04:38:38;-1.30;99.90
14277;DHT22;7222;57.346;12.150;2022-12-07T04:41:06;-1.30;99.90
14277;DHT22;7222;57.346;12.150;2022-12-07T04:43:33;-1.40;99.90
14277;DHT22;7222;57.346;12.150;2022-12-07T04:46:01;-1.30;99.90
14277;DHT22;7222;57.346;12.150;2022-12-07T04:48:28;-1.30;99.90
14277;DHT22;7222;57.346;12.150;2022-12-07T04:50:55;-1.30;99.90
14277;DHT22;7222;57.346;12.150;2022-12-07T04:53:24;-1.20;99.90
14277;DHT22;7222;57.346;12.150;2022-12-07T04:55:51;-1.20;99.90
14277;DHT22;7222;57.346;12.150;2022-12-07T04:58:18;-1.20;99.90
14277;DHT22;7222;57.346;12.150;2022-12-07T05:00:45;-1.20;99.90
14277;DHT22;7222;57.346;12.150;2022-12-07T05:03:12;-1.20;99.90
14277;DHT22;7222;57.346;12.150;2022-12-07T05:05:40;-1.20;99.90
14277;DHT22;7222;57.346;12.150;2022-12-07T05:08:08;-1.20;99.90
14277;DHT22;7222;57.346;12.150;2022-12-07T05:10:36;-1.20;99.90
14277;DHT22;7222;57.346;12.150;2022-12-07T05:13:03;-1.20;99.90
14277;DHT22;7222;57.346;12.150;2022-12-07T05:15:30;-1.20;99.90
14277;DHT22;7222;57.346;12.150;2022-12-07T05:17:57;-1.10;99.90
14277;DHT22;7222;57.346;12.150;2022-12-07T05:20:24;-1.20;99.90
14277;DHT22;7222;57.346;12.150;2022-12-07T05:22:51;-1.10;99.90
14277;DHT22;7222;57.346;12.150;2022-12-07T05:25:18;-1.20;99.90
14277;DHT22;7222;57.346;12.150;2022-12-07T05:27:47;-1.10;99.90
14277;DHT22;7222;57.346;12.150;2022-12-07T05:30:14;-1.10;99.90
14277;DHT22;7222;57.346;12.150;2022-12-07T05:32:41;-1.10;99.90
14277;DHT22;7222;57.346;12.150;2022-12-07T05:35:09;-1.10;99.90
14277;DHT22;7222;57.346;12.150;2022-12-07T05:37:36;-1.20;99.90
14277;DHT22;7222;57.346;12.150;2022-12-07T05:40:04;-1.20;99.90
14277;DHT22;7222;57.346;12.150;2022-12-07T05:42:31;-1.10;99.90
14277;DHT22;7222;57.346;12.150;2022-12-07T05:44:59;-1.10;99.90
14277;DHT22;7222;57.346;12.150;2022-12-07T05:47:26;-1.10;99.90
14277;DHT22;7222;57.346;12.150;2022-12-07T05:49:53;-1.10;99.90
14277;DHT22;7222;57.346;12.150;2022-12-07T05:52:20;-1.10;99.90
14277;DHT22;7222;57.346;12.150;2022-12-07T05:54:47;-1.10;99.90
14277;DHT22;7222;57.346;12.150;2022-12-07T05:57:14;-1.00;99.90
14277;DHT22;7222;57.346;12.150;2022-12-07T05:59:41;-1.00;99.90
14277;DHT22;7222;57.346;12.150;2022-12-07T06:02:10;-1.00;99.90
14277;DHT22;7222;57.346;12.150;2022-12-07T06:04:42;-1.00;99.90
14277;DHT22;7222;57.346;12.150;2022-12-07T06:07:10;-1.10;99.90
14277;DHT22;7222;57.346;12.150;2022-12-07T06:09:38;-1.00;99.90
14277;DHT22;7222;57.346;12.150;2022-12-07T06:12:06;-0.90;99.90
14277;DHT22;7222;57.346;12.150;2022-12-07T06:14:50;-1.00;99.90
14277;DHT22;7222;57.346;12.150;2022-12-07T06:17:19;-0.90;99.90
14277;DHT22;7222;57.346;12.150;2022-12-07T06:19:46;-0.90;99.90
14277;DHT22;7222;57.346;12.150;2022-12-07T06:22:13;-0.90;99.90
14277;DHT22;7222;57.346;12.150;2022-12-07T06:24:41;-0.90;99.90
14277;DHT22;7222;57.346;12.150;2022-12-07T06:27:09;-0.90;99.90
14277;DHT22;7222;57.346;12.150;2022-12-07T06:29:36;-0.80;99.90
14277;DHT22;7222;57.346;12.150;2022-12-07T06:32:04;-0.90;99.90
14277;DHT22;7222;57.346;12.150;2022-12-07T06:34:33;-0.90;99.90
14277;DHT22;7222;57.346;12.150;2022-12-07T06:37:00;-0.90;99.90
14277;DHT22;7222;57.346;12.150;2022-12-07T06:39:28;-0.90;99.90
14277;DHT22;7222;57.346;12.150;2022-12-07T06:41:55;-0.80;99.90
14277;DHT22;7222;57.346;12.150;2022-12-07T06:44:23;-0.90;99.90
14277;DHT22;7222;57.346;12.150;2022-12-07T06:46:50;-0.80;99.90
14277;DHT22;7222;57.346;12.150;2022-12-07T06:49:17;-0.80;99.90
14277;DHT22;7222;57.346;12.150;2022-12-07T06:51:46;-0.80;99.90
14277;DHT22;7222;57.346;12.150;2022-12-07T06:54:14;-0.80;99.90
14277;DHT22;7222;57.346;12.150;2022-12-07T06:56:41;-0.80;99.90
14277;DHT22;7222;57.346;12.150;2022-12-07T06:59:09;-0.80;99.90
14277;DHT22;7222;57.346;12.150;2022-12-07T07:01:36;-0.80;99.90
14277;DHT22;7222;57.346;12.150;2022-12-07T07:04:03;-0.80;99.90
14277;DHT22;7222;57.346;12.150;2022-12-07T07:06:30;-0.80;99.90
14277;DHT22;7222;57.346;12.150;2022-12-07T07:08:59;-0.80;99.90
14277;DHT22;7222;57.346;12.150;2022-12-07T07:11:26;-0.70;99.90
14277;DHT22;7222;57.346;12.150;2022-12-07T07:13:53;-0.70;99.90
14277;DHT22;7222;57.346;12.150;2022-12-07T07:16:22;-0.70;99.90
14277;DHT22;7222;57.346;12.150;2022-12-07T07:18:49;-0.70;99.90
14277;DHT22;7222;57.346;12.150;2022-12-07T07:21:16;-0.70;99.90
14277;DHT22;7222;57.346;12.150;2022-12-07T07:23:43;-0.70;99.90
14277;DHT22;7222;57.346;12.150;2022-12-07T07:26:11;-0.70;99.90
14277;DHT22;7222;57.346;12.150;2022-12-07T07:28:38;-0.70;99.90
14277;DHT22;7222;57.346;12.150;2022-12-07T07:31:06;-0.70;99.90
14277;DHT22;7222;57.346;12.150;2022-12-07T07:33:33;-0.70;99.90
14277;DHT22;7222;57.346;12.150;2022-12-07T07:36:00;-0.70;99.90
14277;DHT22;7222;57.346;12.150;2022-12-07T07:38:27;-0.70;99.90
14277;DHT22;7222;57.346;12.150;2022-12-07T07:40:54;-0.60;99.90
14277;DHT22;7222;57.346;12.150;2022-12-07T07:43:22;-0.60;99.90
14277;DHT22;7222;57.346;12.150;2022-12-07T07:45:49;-0.60;99.90
14277;DHT22;7222;57.346;12.150;2022-12-07T07:48:16;-0.60;99.90
14277;DHT22;7222;57.346;12.150;2022-12-07T07:50:43;-0.50;99.90
14277;DHT22;7222;57.346;12.150;2022-12-07T07:53:10;-0.60;99.90
14277;DHT22;7222;57.346;12.150;2022-12-07T07:55:37;-0.60;99.90
14277;DHT22;7222;57.346;12.150;2022-12-07T07:58:04;-0.50;99.90
14277;DHT22;7222;57.346;12.150;2022-12-07T08:00:32;-0.50;99.90
14277;DHT22;7222;57.346;12.150;2022-12-07T08:02:59;-0.50;99.90
14277;DHT22;7222;57.346;12.150;2022-12-07T08:05:26;-0.50;99.90
14277;DHT22;7222;57.346;12.150;2022-12-07T08:07:53;-0.50;99.90
14277;DHT22;7222;57.346;12.150;2022-12-07T08:10:20;-0.50;99.90
14277;DHT22;7222;57.346;12.150;2022-12-07T08:12:47;-0.50;99.90
14277;DHT22;7222;57.346;12.150;2022-12-07T08:15:33;-0.40;99.90
14277;DHT22;7222;57.346;12.150;2022-12-07T08:18:00;-0.40;99.90
14277;DHT22;7222;57.346;12.150;2022-12-07T08:20:29;-0.40;99.90
14277;DHT22;7222;57.346;12.150;2022-12-07T08:22:56;-0.30;99.90
14277;DHT22;7222;57.346;12.150;2022-12-07T08:25:23;-0.30;99.90
14277;DHT22;7222;57.346;12.150;2022-12-07T08:27:51;-0.30;99.90
14277;DHT22;7222;57.346;12.150;2022-12-07T08:30:18;-0.30;99.90
14277;DHT22;7222;57.346;12.150;2022-12-07T08:32:47;-0.30;99.90
14277;DHT22;7222;57.346;12.150;2022-12-07T08:35:15;-0.20;99.90
14277;DHT22;7222;57.346;12.150;2022-12-07T08:37:42;-0.20;99.90
14277;DHT22;7222;57.346;12.150;2022-12-07T08:40:10;-0.20;99.90
14277;DHT22;7222;57.346;12.150;2022-12-07T08:42:40;-0.30;99.90
14277;DHT22;7222;57.346;12.150;2022-12-07T08:45:09;-0.20;99.90
14277;DHT22;7222;57.346;12.150;2022-12-07T08:47:39;-0.20;99.90
14277;DHT22;7222;57.346;12.150;2022-12-07T08:50:10;-0.20;99.90
14277;DHT22;7222;57.346;12.150;2022-12-07T08:52:37;-0.10;99.90
14277;DHT22;7222;57.346;12.150;2022-12-07T08:55:06;-0.10;99.90
14277;DHT22;7222;57.346;12.150;2022-12-07T08:57:34;-0.10;99.90
14277;DHT22;7222;57.346;12.150;2022-12-07T09:00:03;-0.10;99.90
14277;DHT22;7222;57.346;12.150;2022-12-07T09:02:30;0.00;99.90
14277;DHT22;7222;57.346;12.150;2022-12-07T09:04:57;0.10;99.90
14277;DHT22;7222;57.346;12.150;2022-12-07T09:07:26;0.10;99.90
14277;DHT22;7222;57.346;12.150;2022-12-07T09:09:53;0.10;99.90
14277;DHT22;7222;57.346;12.150;2022-12-07T09:12:21;0.10;99.90
14277;DHT22;7222;57.346;12.150;2022-12-07T09:14:48;0.10;99.90
14277;DHT22;7222;57.346;12.150;2022-12-07T09:17:15;0.20;99.90
14277;DHT22;7222;57.346;12.150;2022-12-07T09:19:42;0.20;99.90
14277;DHT22;7222;57.346;12.150;2022-12-07T09:22:09;0.30;99.90
14277;DHT22;7222;57.346;12.150;2022-12-07T09:24:37;0.40;99.90
14277;DHT22;7222;57.346;12.150;2022-12-07T09:27:04;0.50;99.90
14277;DHT22;7222;57.346;12.150;2022-12-07T09:29:31;0.50;99.90
14277;DHT22;7222;57.346;12.150;2022-12-07T09:31:58;0.50;99.90
14277;DHT22;7222;57.346;12.150;2022-12-07T09:34:25;0.50;99.90
14277;DHT22;7222;57.346;12.150;2022-12-07T09:36:53;0.50;99.90
14277;DHT22;7222;57.346;12.150;2022-12-07T09:39:20;0.50;99.90
14277;DHT22;7222;57.346;12.150;2022-12-07T09:41:48;0.60;99.90
14277;DHT22;7222;57.346;12.150;2022-12-07T09:44:20;0.60;99.90
14277;DHT22;7222;57.346;12.150;2022-12-07T09:46:48;0.60;99.90
14277;DHT22;7222;57.346;12.150;2022-12-07T09:49:20;0.60;99.90
14277;DHT22;7222;57.346;12.150;2022-12-07T09:51:48;0.50;99.90
14277;DHT22;7222;57.346;12.150;2022-12-07T09:54:25;0.60;99.90
14277;DHT22;7222;57.346;12.150;2022-12-07T09:56:54;0.70;99.90
14277;DHT22;7222;57.346;12.150;2022-12-07T09:59:20;0.70;99.90
14277;DHT22;7222;57.346;12.150;2022-12-07T10:01:49;0.60;99.90
14277;DHT22;7222;57.346;12.150;2022-12-07T10:04:18;0.60;99.90
14277;DHT22;7222;57.346;12.150;2022-12-07T10:06:47;0.70;99.90
14277;DHT22;7222;57.346;12.150;2022-12-07T10:09:18;0.60;99.90
14277;DHT22;7222;57.346;12.150;2022-12-07T10:12:11;0.60;99.90
14277;DHT22;7222;57.346;12.150;2022-12-07T10:14:51;0.60;99.90
14277;DHT22;7222;57.346;12.150;2022-12-07T10:17:34;0.60;99.90
14277;DHT22;7222;57.346;12.150;2022-12-07T10:20:23;0.50;99.90
14277;DHT22;7222;57.346;12.150;2022-12-07T10:22:59;0.50;99.90
14277;DHT22;7222;57.346;12.150;2022-12-07T10:25:29;0.60;99.90
14277;DHT22;7222;57.346;12.150;2022-12-07T10:28:11;0.70;99.90
14277;DHT22;7222;57.346;12.150;2022-12-07T10:30:53;0.70;99.90
14277;DHT22;7222;57.346;12.150;2022-12-07T10:33:32;0.70;99.90
14277;DHT22;7222;57.346;12.150;2022-12-07T10:36:00;0.80;99.90
14277;DHT22;7222;57.346;12.150;2022-12-07T10:38:27;0.70;99.90
14277;DHT22;7222;57.346;12.150;2022-12-07T10:41:05;0.70;99.90
14277;DHT22;7222;57.346;12.150;2022-12-07T10:43:33;0.70;99.90
14277;DHT22;7222;57.346;12.150;2022-12-07T10:49:27;0.80;99.90
14277;DHT22;7222;57.346;12.150;2022-12-07T10:52:01;0.80;99.90
14277;DHT22;7222;57.346;12.150;2022-12-07T10:54:37;0.80;99.90
14277;DHT22;7222;57.346;12.150;2022-12-07T10:57:22;0.70;99.90
14277;DHT22;7222;57.346;12.150;2022-12-07T11:00:02;0.80;99.90
14277;DHT22;7222;57.346;12.150;2022-12-07T11:02:54;0.70;99.90
14277;DHT22;7222;57.346;12.150;2022-12-07T11:05:28;0.90;99.90
14277;DHT22;7222;57.346;12.150;2022-12-07T11:08:03;0.80;99.90
14277;DHT22;7222;57.346;12.150;2022-12-07T11:10:40;0.80;99.90
14277;DHT22;7222;57.346;12.150;2022-12-07T11:13:25;0.90;99.90
14277;DHT22;7222;57.346;12.150;2022-12-07T11:16:02;0.90;99.90
14277;DHT22;7222;57.346;12.150;2022-12-07T11:18:38;1.00;99.90
14277;DHT22;7222;57.346;12.150;2022-12-07T11:21:11;1.00;99.90
14277;DHT22;7222;57.346;12.150;2022-12-07T11:23:48;1.00;99.90
14277;DHT22;7222;57.346;12.150;2022-12-07T11:26:24;1.10;99.90
14277;DHT22;7222;57.346;12.150;2022-12-07T11:29:08;1.10;99.90
14277;DHT22;7222;57.346;12.150;2022-12-07T11:31:50;1.30;99.90
14277;DHT22;7222;57.346;12.150;2022-12-07T11:34:27;1.50;99.90
14277;DHT22;7222;57.346;12.150;2022-12-07T11:36:57;1.80;99.90
14277;DHT22;7222;57.346;12.150;2022-12-07T11:39:30;2.00;99.90
14277;DHT22;7222;57.346;12.150;2022-12-07T11:42:02;2.30;99.90
14277;DHT22;7222;57.346;12.150;2022-12-07T11:44:34;2.10;99.90
14277;DHT22;7222;57.346;12.150;2022-12-07T11:47:08;2.20;99.90
14277;DHT22;7222;57.346;12.150;2022-12-07T11:49:42;2.30;99.90
14277;DHT22;7222;57.346;12.150;2022-12-07T11:52:20;2.30;99.90
14277;DHT22;7222;57.346;12.150;2022-12-07T11:54:50;2.10;99.90
14277;DHT22;7222;57.346;12.150;2022-12-07T11:57:25;2.20;99.90
14277;DHT22;7222;57.346;12.150;2022-12-07T12:00:00;2.20;99.90
14277;DHT22;7222;57.346;12.150;2022-12-07T12:02:34;2.30;99.90
14277;DHT22;7222;57.346;12.150;2022-12-07T12:05:13;2.30;99.90
14277;DHT22;7222;57.346;12.150;2022-12-07T12:07:42;2.30;99.90
14277;DHT22;7222;57.346;12.150;2022-12-07T12:10:18;2.20;99.90
14277;DHT22;7222;57.346;12.150;2022-12-07T12:13:17;2.00;99.90
14277;DHT22;7222;57.346;12.150;2022-12-07T12:15:59;1.80;99.90
14277;DHT22;7222;57.346;12.150;2022-12-07T12:18:50;1.90;99.90
14277;DHT22;7222;57.346;12.150;2022-12-07T12:21:21;1.80;99.90
14277;DHT22;7222;57.346;12.150;2022-12-07T12:23:54;1.90;99.90
14277;DHT22;7222;57.346;12.150;2022-12-07T12:26:24;1.80;99.90
14277;DHT22;7222;57.346;12.150;2022-12-07T12:28:55;1.80;99.90
14277;DHT22;7222;57.346;12.150;2022-12-07T12:31:34;1.80;99.90
14277;DHT22;7222;57.346;12.150;2022-12-07T12:34:29;2.00;99.90
14277;DHT22;7222;57.346;12.150;2022-12-07T12:36:51;2.00;99.90
14277;DHT22;7222;57.346;12.150;2022-12-07T12:39:19;2.00;99.90
14277;DHT22;7222;57.346;12.150;2022-12-07T12:41:57;2.10;99.90
14277;DHT22;7222;57.346;12.150;2022-12-07T12:47:42;2.60;99.90
14277;DHT22;7222;57.346;12.150;2022-12-07T12:50:19;2.70;99.90
14277;DHT22;7222;57.346;12.150;2022-12-07T12:53:02;2.50;99.90
14277;DHT22;7222;57.346;12.150;2022-12-07T12:56:03;2.30;99.90
14277;DHT22;7222;57.346;12.150;2022-12-07T12:58:37;2.30;99.90
14277;DHT22;7222;57.346;12.150;2022-12-07T13:04:40;2.20;99.90
14277;DHT22;7222;57.346;12.150;2022-12-07T13:07:52;2.30;99.90
14277;DHT22;7222;57.346;12.150;2022-12-07T13:10:40;2.20;99.90
14277;DHT22;7222;57.346;12.150;2022-12-07T13:13:34;2.10;99.90
14277;DHT22;7222;57.346;12.150;2022-12-07T13:22:49;2.00;99.90
14277;DHT22;7222;57.346;12.150;2022-12-07T13:25:31;2.00;99.90
14277;DHT22;7222;57.346;12.150;2022-12-07T13:28:02;2.10;99.90
14277;DHT22;7222;57.346;12.150;2022-12-07T13:30:43;2.00;99.90
14277;DHT22;7222;57.346;12.150;2022-12-07T13:33:11;2.00;99.90
14277;DHT22;7222;57.346;12.150;2022-12-07T13:35:39;2.00;99.90
14277;DHT22;7222;57.346;12.150;2022-12-07T13:38:17;1.90;99.90
14277;DHT22;7222;57.346;12.150;2022-12-07T13:41:02;2.10;99.90
14277;DHT22;7222;57.346;12.150;2022-12-07T13:43:29;2.40;99.90
14277;DHT22;7222;57.346;12.150;2022-12-07T13:45:56;3.20;99.90
14277;DHT22;7222;57.346;12.150;2022-12-07T13:48:30;3.30;99.90
14277;DHT22;7222;57.346;12.150;2022-12-07T13:51:00;3.30;99.90
14277;DHT22;7222;57.346;12.150;2022-12-07T13:53:28;3.00;99.90
14277;DHT22;7222;57.346;12.150;2022-12-07T13:55:56;2.70;99.90
14277;DHT22;7222;57.346;12.150;2022-12-07T13:58:25;2.50;99.90
14277;DHT22;7222;57.346;12.150;2022-12-07T14:00:53;2.20;99.90
14277;DHT22;7222;57.346;12.150;2022-12-07T14:03:30;2.10;99.90
14277;DHT22;7222;57.346;12.150;2022-12-07T14:06:05;1.90;99.90
14277;DHT22;7222;57.346;12.150;2022-12-07T14:08:33;1.80;99.90
14277;DHT22;7222;57.346;12.150;2022-12-07T14:11:00;1.70;99.90
14277;DHT22;7222;57.346;12.150;2022-12-07T14:13:32;1.60;99.90
14277;DHT22;7222;57.346;12.150;2022-12-07T14:16:00;1.50;99.90
14277;DHT22;7222;57.346;12.150;2022-12-07T14:18:29;1.50;99.90
14277;DHT22;7222;57.346;12.150;2022-12-07T14:21:04;1.40;99.90
14277;DHT22;7222;57.346;12.150;2022-12-07T14:23:31;1.20;99.90
14277;DHT22;7222;57.346;12.150;2022-12-07T14:26:06;1.20;99.90
14277;DHT22;7222;57.346;12.150;2022-12-07T14:28:36;1.10;99.90
14277;DHT22;7222;57.346;12.150;2022-12-07T14:31:10;1.00;99.90
14277;DHT22;7222;57.346;12.150;2022-12-07T14:33:38;0.80;99.90
14277;DHT22;7222;57.346;12.150;2022-12-07T14:36:06;0.80;99.90
14277;DHT22;7222;57.346;12.150;2022-12-07T14:38:34;0.70;99.90
14277;DHT22;7222;57.346;12.150;2022-12-07T14:41:01;0.70;99.90
14277;DHT22;7222;57.346;12.150;2022-12-07T14:43:43;0.70;99.90
14277;DHT22;7222;57.346;12.150;2022-12-07T14:46:10;0.60;99.90
14277;DHT22;7222;57.346;12.150;2022-12-07T14:48:37;0.40;99.90
14277;DHT22;7222;57.346;12.150;2022-12-07T14:51:05;0.40;99.90
14277;DHT22;7222;57.346;12.150;2022-12-07T14:53:35;0.30;99.90
14277;DHT22;7222;57.346;12.150;2022-12-07T14:56:03;0.20;99.90
14277;DHT22;7222;57.346;12.150;2022-12-07T14:58:31;0.20;99.90
14277;DHT22;7222;57.346;12.150;2022-12-07T15:01:00;0.10;99.90
14277;DHT22;7222;57.346;12.150;2022-12-07T15:03:27;0.10;99.90
14277;DHT22;7222;57.346;12.150;2022-12-07T15:05:55;0.00;99.90
14277;DHT22;7222;57.346;12.150;2022-12-07T15:08:22;0.00;99.90
14277;DHT22;7222;57.346;12.150;2022-12-07T15:10:49;0.00;99.90
14277;DHT22;7222;57.346;12.150;2022-12-07T15:13:16;-0.30;99.90
14277;DHT22;7222;57.346;12.150;2022-12-07T15:16:01;-0.30;99.90
14277;DHT22;7222;57.346;12.150;2022-12-07T15:18:28;-0.30;99.90
14277;DHT22;7222;57.346;12.150;2022-12-07T15:20:55;-0.30;99.90
14277;DHT22;7222;57.346;12.150;2022-12-07T15:23:22;-0.30;99.90
14277;DHT22;7222;57.346;12.150;2022-12-07T15:25:49;-0.40;99.90
14277;DHT22;7222;57.346;12.150;2022-12-07T15:28:16;-0.40;99.90
14277;DHT22;7222;57.346;12.150;2022-12-07T15:30:44;-0.40;99.90
14277;DHT22;7222;57.346;12.150;2022-12-07T15:33:12;-0.40;99.90
14277;DHT22;7222;57.346;12.150;2022-12-07T15:35:39;-0.50;99.90
14277;DHT22;7222;57.346;12.150;2022-12-07T15:38:07;-0.60;99.90
14277;DHT22;7222;57.346;12.150;2022-12-07T15:40:34;-0.70;99.90
14277;DHT22;7222;57.346;12.150;2022-12-07T15:43:01;-0.80;99.90
14277;DHT22;7222;57.346;12.150;2022-12-07T15:45:28;-0.80;99.90
14277;DHT22;7222;57.346;12.150;2022-12-07T15:47:54;-0.90;99.90
14277;DHT22;7222;57.346;12.150;2022-12-07T15:50:23;-0.80;99.90
14277;DHT22;7222;57.346;12.150;2022-12-07T15:52:50;-0.70;99.90
14277;DHT22;7222;57.346;12.150;2022-12-07T15:55:17;-0.90;99.90
14277;DHT22;7222;57.346;12.150;2022-12-07T15:57:44;-1.00;99.90
14277;DHT22;7222;57.346;12.150;2022-12-07T16:00:12;-1.00;99.90
14277;DHT22;7222;57.346;12.150;2022-12-07T16:02:39;-1.10;99.90
14277;DHT22;7222;57.346;12.150;2022-12-07T16:05:06;-1.10;99.90
14277;DHT22;7222;57.346;12.150;2022-12-07T16:07:35;-1.10;99.90
14277;DHT22;7222;57.346;12.150;2022-12-07T16:10:02;-1.10;99.90
14277;DHT22;7222;57.346;12.150;2022-12-07T16:12:29;-1.10;99.90
14277;DHT22;7222;57.346;12.150;2022-12-07T16:14:56;-1.20;99.90
14277;DHT22;7222;57.346;12.150;2022-12-07T16:17:23;-1.20;99.90